sensor_id;sensor_type;location;lat;lon;timestamp;P1;durP1;ratioP1;P2;durP2;ratioP2
151;SDS011;68;48.792;9.164;2023-01-24T00:01:08;37.47;;;22.52;;
151;SDS011;68;48.792;9.164;2023-01-24T00:03:34;37.15;;;22.50;;
151;SDS011;68;48.792;9.164;2023-01-24T00:06:02;37.97;;;23.00;;
151;SDS011;68;48.792;9.164;2023-01-24T00:08:29;35.47;;;21.90;;
151;SDS011;68;48.792;9.164;2023-01-24T00:10:59;33.22;;;21.23;;
151;SDS011;68;48.792;9.164;2023-01-24T00:13:26;36.25;;;22.52;;
151;SDS011;68;48.792;9.164;2023-01-24T00:16:02;35.15;;;22.35;;
151;SDS011;68;48.792;9.164;2023-01-24T00:18:30;31.75;;;20.80;;
151;SDS011;68;48.792;9.164;2023-01-24T00:21:01;35.83;;;21.48;;
151;SDS011;68;48.792;9.164;2023-01-24T00:23:29;34.65;;;22.33;;
151;SDS011;68;48.792;9.164;2023-01-24T00:25:55;33.92;;;21.20;;
151;SDS011;68;48.792;9.164;2023-01-24T00:28:22;31.75;;;21.05;;
151;SDS011;68;48.792;9.164;2023-01-24T00:30:49;34.08;;;21.40;;
151;SDS011;68;48.792;9.164;2023-01-24T00:33:17;34.60;;;21.67;;
151;SDS011;68;48.792;9.164;2023-01-24T00:35:44;35.30;;;21.92;;
151;SDS011;68;48.792;9.164;2023-01-24T00:38:11;34.75;;;21.67;;
151;SDS011;68;48.792;9.164;2023-01-24T00:40:38;34.05;;;21.42;;
151;SDS011;68;48.792;9.164;2023-01-24T00:43:04;34.83;;;21.38;;
151;SDS011;68;48.792;9.164;2023-01-24T00:45:31;30.85;;;20.33;;
151;SDS011;68;48.792;9.164;2023-01-24T00:48:01;33.10;;;20.77;;
151;SDS011;68;48.792;9.164;2023-01-24T00:50:30;31.70;;;20.50;;
151;SDS011;68;48.792;9.164;2023-01-24T00:52:57;36.17;;;21.30;;
151;SDS011;68;48.792;9.164;2023-01-24T00:55:23;32.58;;;20.67;;
151;SDS011;68;48.792;9.164;2023-01-24T00:57:50;36.17;;;21.60;;
151;SDS011;68;48.792;9.164;2023-01-24T01:00:17;31.65;;;19.58;;
151;SDS011;68;48.792;9.164;2023-01-24T01:02:44;32.70;;;20.50;;
151;SDS011;68;48.792;9.164;2023-01-24T01:05:11;32.40;;;18.95;;
151;SDS011;68;48.792;9.164;2023-01-24T01:07:39;33.80;;;20.75;;
151;SDS011;68;48.792;9.164;2023-01-24T01:10:06;32.85;;;20.35;;
151;SDS011;68;48.792;9.164;2023-01-24T01:12:33;33.30;;;20.35;;
151;SDS011;68;48.792;9.164;2023-01-24T01:15:00;33.55;;;21.02;;
151;SDS011;68;48.792;9.164;2023-01-24T01:17:27;28.48;;;18.67;;
151;SDS011;68;48.792;9.164;2023-01-24T01:19:54;34.10;;;20.92;;
151;SDS011;68;48.792;9.164;2023-01-24T01:22:21;32.47;;;20.35;;
151;SDS011;68;48.792;9.164;2023-01-24T01:24:49;29.63;;;19.88;;
151;SDS011;68;48.792;9.164;2023-01-24T01:27:15;32.70;;;20.02;;
151;SDS011;68;48.792;9.164;2023-01-24T01:29:42;31.70;;;19.98;;
151;SDS011;68;48.792;9.164;2023-01-24T01:32:09;31.90;;;20.50;;
151;SDS011;68;48.792;9.164;2023-01-24T01:34:36;34.03;;;22.23;;
151;SDS011;68;48.792;9.164;2023-01-24T01:37:03;32.95;;;20.52;;
151;SDS011;68;48.792;9.164;2023-01-24T01:39:30;33.38;;;20.55;;
151;SDS011;68;48.792;9.164;2023-01-24T01:41:58;34.95;;;21.92;;
151;SDS011;68;48.792;9.164;2023-01-24T01:44:25;32.63;;;20.45;;
151;SDS011;68;48.792;9.164;2023-01-24T01:47:06;29.83;;;19.67;;
151;SDS011;68;48.792;9.164;2023-01-24T01:49:44;33.72;;;20.70;;
151;SDS011;68;48.792;9.164;2023-01-24T01:52:14;33.58;;;21.02;;
151;SDS011;68;48.792;9.164;2023-01-24T01:54:42;34.50;;;22.88;;
151;SDS011;68;48.792;9.164;2023-01-24T01:57:14;36.25;;;21.92;;
151;SDS011;68;48.792;9.164;2023-01-24T01:59:43;32.63;;;20.40;;
151;SDS011;68;48.792;9.164;2023-01-24T02:02:14;32.10;;;20.70;;
151;SDS011;68;48.792;9.164;2023-01-24T02:04:44;26.75;;;16.77;;
151;SDS011;68;48.792;9.164;2023-01-24T02:07:16;34.70;;;20.80;;
151;SDS011;68;48.792;9.164;2023-01-24T02:09:47;34.65;;;20.80;;
151;SDS011;68;48.792;9.164;2023-01-24T02:12:19;31.52;;;20.77;;
151;SDS011;68;48.792;9.164;2023-01-24T02:14:47;28.15;;;18.42;;
151;SDS011;68;48.792;9.164;2023-01-24T02:17:35;34.88;;;21.13;;
151;SDS011;68;48.792;9.164;2023-01-24T02:20:04;33.15;;;20.35;;
151;SDS011;68;48.792;9.164;2023-01-24T02:22:39;29.63;;;19.65;;
151;SDS011;68;48.792;9.164;2023-01-24T02:25:15;29.90;;;20.02;;
151;SDS011;68;48.792;9.164;2023-01-24T02:27:47;31.00;;;19.35;;
151;SDS011;68;48.792;9.164;2023-01-24T02:30:14;31.70;;;20.50;;
151;SDS011;68;48.792;9.164;2023-01-24T02:32:40;31.88;;;20.35;;
151;SDS011;68;48.792;9.164;2023-01-24T02:35:19;32.92;;;20.25;;
151;SDS011;68;48.792;9.164;2023-01-24T02:37:48;33.17;;;20.23;;
151;SDS011;68;48.792;9.164;2023-01-24T02:40:15;33.67;;;20.33;;
151;SDS011;68;48.792;9.164;2023-01-24T02:42:43;33.28;;;20.40;;
151;SDS011;68;48.792;9.164;2023-01-24T02:45:13;32.05;;;20.50;;
151;SDS011;68;48.792;9.164;2023-01-24T02:47:44;31.65;;;19.67;;
151;SDS011;68;48.792;9.164;2023-01-24T02:50:12;33.90;;;20.48;;
151;SDS011;68;48.792;9.164;2023-01-24T02:52:40;34.10;;;20.50;;
151;SDS011;68;48.792;9.164;2023-01-24T02:55:24;33.58;;;20.35;;
151;SDS011;68;48.792;9.164;2023-01-24T02:57:51;33.67;;;20.02;;
151;SDS011;68;48.792;9.164;2023-01-24T03:00:33;31.98;;;19.70;;
151;SDS011;68;48.792;9.164;2023-01-24T03:03:01;32.40;;;19.63;;
151;SDS011;68;48.792;9.164;2023-01-24T03:05:28;32.40;;;19.73;;
151;SDS011;68;48.792;9.164;2023-01-24T03:08:05;33.53;;;20.35;;
151;SDS011;68;48.792;9.164;2023-01-24T03:10:33;31.50;;;20.05;;
151;SDS011;68;48.792;9.164;2023-01-24T03:13:00;33.40;;;20.98;;
151;SDS011;68;48.792;9.164;2023-01-24T03:15:46;33.53;;;20.95;;
151;SDS011;68;48.792;9.164;2023-01-24T03:18:30;35.85;;;21.63;;
151;SDS011;68;48.792;9.164;2023-01-24T03:21:14;37.20;;;22.00;;
151;SDS011;68;48.792;9.164;2023-01-24T03:23:58;31.63;;;20.63;;
151;SDS011;68;48.792;9.164;2023-01-24T03:26:43;30.63;;;19.33;;
151;SDS011;68;48.792;9.164;2023-01-24T03:29:27;36.33;;;21.25;;
151;SDS011;68;48.792;9.164;2023-01-24T03:32:12;34.20;;;20.83;;
151;SDS011;68;48.792;9.164;2023-01-24T03:34:56;32.30;;;20.13;;
151;SDS011;68;48.792;9.164;2023-01-24T03:37:24;35.38;;;21.23;;
151;SDS011;68;48.792;9.164;2023-01-24T03:40:09;37.17;;;21.42;;
151;SDS011;68;48.792;9.164;2023-01-24T03:42:38;34.75;;;19.60;;
151;SDS011;68;48.792;9.164;2023-01-24T03:45:12;33.72;;;19.90;;
151;SDS011;68;48.792;9.164;2023-01-24T03:47:45;31.85;;;19.67;;
151;SDS011;68;48.792;9.164;2023-01-24T03:50:19;33.53;;;20.08;;
151;SDS011;68;48.792;9.164;2023-01-24T03:53:05;33.75;;;21.50;;
151;SDS011;68;48.792;9.164;2023-01-24T03:55:32;35.75;;;21.13;;
151;SDS011;68;48.792;9.164;2023-01-24T03:57:59;35.20;;;21.75;;
151;SDS011;68;48.792;9.164;2023-01-24T04:00:26;34.15;;;20.80;;
151;SDS011;68;48.792;9.164;2023-01-24T04:02:54;36.45;;;21.30;;
151;SDS011;68;48.792;9.164;2023-01-24T04:05:21;36.47;;;21.55;;
151;SDS011;68;48.792;9.164;2023-01-24T04:07:48;36.42;;;21.70;;
151;SDS011;68;48.792;9.164;2023-01-24T04:10:16;40.75;;;23.05;;
151;SDS011;68;48.792;9.164;2023-01-24T04:12:42;36.03;;;21.63;;
151;SDS011;68;48.792;9.164;2023-01-24T04:15:14;32.40;;;20.83;;
151;SDS011;68;48.792;9.164;2023-01-24T04:17:42;36.05;;;22.05;;
151;SDS011;68;48.792;9.164;2023-01-24T04:20:10;36.25;;;21.38;;
151;SDS011;68;48.792;9.164;2023-01-24T04:22:38;39.13;;;23.10;;
151;SDS011;68;48.792;9.164;2023-01-24T04:25:05;36.83;;;22.58;;
151;SDS011;68;48.792;9.164;2023-01-24T04:27:33;37.92;;;22.63;;
151;SDS011;68;48.792;9.164;2023-01-24T04:29:59;37.67;;;22.15;;
151;SDS011;68;48.792;9.164;2023-01-24T04:32:27;37.30;;;21.98;;
151;SDS011;68;48.792;9.164;2023-01-24T04:34:54;34.40;;;21.27;;
151;SDS011;68;48.792;9.164;2023-01-24T04:37:22;35.83;;;21.40;;
151;SDS011;68;48.792;9.164;2023-01-24T04:39:49;33.88;;;21.17;;
151;SDS011;68;48.792;9.164;2023-01-24T04:42:16;35.13;;;21.20;;
151;SDS011;68;48.792;9.164;2023-01-24T04:44:43;39.15;;;21.95;;
151;SDS011;68;48.792;9.164;2023-01-24T04:47:09;34.85;;;21.42;;
151;SDS011;68;48.792;9.164;2023-01-24T04:49:36;36.10;;;21.40;;
151;SDS011;68;48.792;9.164;2023-01-24T04:52:03;36.63;;;22.08;;
151;SDS011;68;48.792;9.164;2023-01-24T04:54:31;37.15;;;21.95;;
151;SDS011;68;48.792;9.164;2023-01-24T04:56:58;37.28;;;22.23;;
151;SDS011;68;48.792;9.164;2023-01-24T04:59:25;34.50;;;21.15;;
151;SDS011;68;48.792;9.164;2023-01-24T05:01:51;36.58;;;21.95;;
151;SDS011;68;48.792;9.164;2023-01-24T05:04:18;35.65;;;21.90;;
151;SDS011;68;48.792;9.164;2023-01-24T05:06:45;35.72;;;21.80;;
151;SDS011;68;48.792;9.164;2023-01-24T05:09:12;35.72;;;20.38;;
151;SDS011;68;48.792;9.164;2023-01-24T05:11:40;35.58;;;21.75;;
151;SDS011;68;48.792;9.164;2023-01-24T05:14:07;38.15;;;21.88;;
151;SDS011;68;48.792;9.164;2023-01-24T05:16:34;36.15;;;21.70;;
151;SDS011;68;48.792;9.164;2023-01-24T05:19:01;36.22;;;22.10;;
151;SDS011;68;48.792;9.164;2023-01-24T05:21:28;36.50;;;22.05;;
151;SDS011;68;48.792;9.164;2023-01-24T05:23:55;37.30;;;21.67;;
151;SDS011;68;48.792;9.164;2023-01-24T05:26:23;37.72;;;22.63;;
151;SDS011;68;48.792;9.164;2023-01-24T05:28:53;38.38;;;22.02;;
151;SDS011;68;48.792;9.164;2023-01-24T05:31:20;39.10;;;21.48;;
151;SDS011;68;48.792;9.164;2023-01-24T05:33:47;41.53;;;21.88;;
151;SDS011;68;48.792;9.164;2023-01-24T05:36:14;37.88;;;22.08;;
151;SDS011;68;48.792;9.164;2023-01-24T05:38:42;37.03;;;22.17;;
151;SDS011;68;48.792;9.164;2023-01-24T05:41:10;36.75;;;21.83;;
151;SDS011;68;48.792;9.164;2023-01-24T05:43:41;40.35;;;23.83;;
151;SDS011;68;48.792;9.164;2023-01-24T05:46:10;39.03;;;23.05;;
151;SDS011;68;48.792;9.164;2023-01-24T05:48:40;39.65;;;24.05;;
151;SDS011;68;48.792;9.164;2023-01-24T05:51:08;42.88;;;23.88;;
151;SDS011;68;48.792;9.164;2023-01-24T05:53:37;37.30;;;22.67;;
151;SDS011;68;48.792;9.164;2023-01-24T05:56:06;37.95;;;23.08;;
151;SDS011;68;48.792;9.164;2023-01-24T05:58:35;39.40;;;23.85;;
151;SDS011;68;48.792;9.164;2023-01-24T06:01:05;39.45;;;22.88;;
151;SDS011;68;48.792;9.164;2023-01-24T06:03:36;43.08;;;24.58;;
151;SDS011;68;48.792;9.164;2023-01-24T06:06:03;42.17;;;23.85;;
151;SDS011;68;48.792;9.164;2023-01-24T06:08:31;43.63;;;24.38;;
151;SDS011;68;48.792;9.164;2023-01-24T06:11:00;38.42;;;23.60;;
151;SDS011;68;48.792;9.164;2023-01-24T06:13:28;40.80;;;24.23;;
151;SDS011;68;48.792;9.164;2023-01-24T06:15:59;44.38;;;25.63;;
151;SDS011;68;48.792;9.164;2023-01-24T06:18:30;45.10;;;24.70;;
151;SDS011;68;48.792;9.164;2023-01-24T06:21:03;41.75;;;23.65;;
151;SDS011;68;48.792;9.164;2023-01-24T06:23:30;43.17;;;24.42;;
151;SDS011;68;48.792;9.164;2023-01-24T06:25:58;42.33;;;24.63;;
151;SDS011;68;48.792;9.164;2023-01-24T06:28:25;45.42;;;24.10;;
151;SDS011;68;48.792;9.164;2023-01-24T06:30:55;45.33;;;25.45;;
151;SDS011;68;48.792;9.164;2023-01-24T06:33:36;51.03;;;24.10;;
151;SDS011;68;48.792;9.164;2023-01-24T06:36:19;39.92;;;23.25;;
151;SDS011;68;48.792;9.164;2023-01-24T06:38:57;44.60;;;24.67;;
151;SDS011;68;48.792;9.164;2023-01-24T06:41:24;36.80;;;19.52;;
151;SDS011;68;48.792;9.164;2023-01-24T06:43:52;43.15;;;25.40;;
151;SDS011;68;48.792;9.164;2023-01-24T06:46:19;47.88;;;24.88;;
151;SDS011;68;48.792;9.164;2023-01-24T06:48:45;46.45;;;24.80;;
151;SDS011;68;48.792;9.164;2023-01-24T06:51:12;42.10;;;24.92;;
151;SDS011;68;48.792;9.164;2023-01-24T06:53:41;44.78;;;25.35;;
151;SDS011;68;48.792;9.164;2023-01-24T06:56:08;40.90;;;24.73;;
151;SDS011;68;48.792;9.164;2023-01-24T06:58:35;44.78;;;24.25;;
151;SDS011;68;48.792;9.164;2023-01-24T07:01:01;46.00;;;24.65;;
151;SDS011;68;48.792;9.164;2023-01-24T07:03:28;45.35;;;24.63;;
151;SDS011;68;48.792;9.164;2023-01-24T07:05:55;44.17;;;24.90;;
151;SDS011;68;48.792;9.164;2023-01-24T07:08:22;44.67;;;25.05;;
151;SDS011;68;48.792;9.164;2023-01-24T07:10:50;45.40;;;24.63;;
151;SDS011;68;48.792;9.164;2023-01-24T07:13:17;43.20;;;24.17;;
151;SDS011;68;48.792;9.164;2023-01-24T07:15:44;43.10;;;23.88;;
151;SDS011;68;48.792;9.164;2023-01-24T07:18:15;49.65;;;24.90;;
151;SDS011;68;48.792;9.164;2023-01-24T07:20:43;43.63;;;25.27;;
151;SDS011;68;48.792;9.164;2023-01-24T07:23:19;47.67;;;24.95;;
151;SDS011;68;48.792;9.164;2023-01-24T07:25:48;45.53;;;26.17;;
151;SDS011;68;48.792;9.164;2023-01-24T07:28:17;42.60;;;24.17;;
151;SDS011;68;48.792;9.164;2023-01-24T07:30:44;44.25;;;23.52;;
151;SDS011;68;48.792;9.164;2023-01-24T07:33:11;39.20;;;23.88;;
151;SDS011;68;48.792;9.164;2023-01-24T07:35:39;43.42;;;24.20;;
151;SDS011;68;48.792;9.164;2023-01-24T07:38:06;42.60;;;23.55;;
151;SDS011;68;48.792;9.164;2023-01-24T07:40:33;40.38;;;24.05;;
151;SDS011;68;48.792;9.164;2023-01-24T07:43:01;40.05;;;23.52;;
151;SDS011;68;48.792;9.164;2023-01-24T07:45:29;45.03;;;23.77;;
151;SDS011;68;48.792;9.164;2023-01-24T07:47:57;44.92;;;22.90;;
151;SDS011;68;48.792;9.164;2023-01-24T07:50:25;39.90;;;23.10;;
151;SDS011;68;48.792;9.164;2023-01-24T07:52:52;41.35;;;23.25;;
151;SDS011;68;48.792;9.164;2023-01-24T07:55:20;35.83;;;22.45;;
151;SDS011;68;48.792;9.164;2023-01-24T07:57:47;40.42;;;24.02;;
151;SDS011;68;48.792;9.164;2023-01-24T08:00:16;38.47;;;22.30;;
151;SDS011;68;48.792;9.164;2023-01-24T08:02:43;36.72;;;22.88;;
151;SDS011;68;48.792;9.164;2023-01-24T08:05:10;39.03;;;22.45;;
151;SDS011;68;48.792;9.164;2023-01-24T08:07:37;40.97;;;22.73;;
151;SDS011;68;48.792;9.164;2023-01-24T08:10:04;40.22;;;22.67;;
151;SDS011;68;48.792;9.164;2023-01-24T08:12:32;38.70;;;21.75;;
151;SDS011;68;48.792;9.164;2023-01-24T08:14:59;40.58;;;22.35;;
151;SDS011;68;48.792;9.164;2023-01-24T08:17:27;42.70;;;23.85;;
151;SDS011;68;48.792;9.164;2023-01-24T08:19:54;44.53;;;23.65;;
151;SDS011;68;48.792;9.164;2023-01-24T08:22:21;41.33;;;22.55;;
151;SDS011;68;48.792;9.164;2023-01-24T08:24:47;40.20;;;23.60;;
151;SDS011;68;48.792;9.164;2023-01-24T08:27:14;39.13;;;22.75;;
151;SDS011;68;48.792;9.164;2023-01-24T08:29:41;43.20;;;22.45;;
151;SDS011;68;48.792;9.164;2023-01-24T08:32:08;39.63;;;23.15;;
151;SDS011;68;48.792;9.164;2023-01-24T08:34:36;42.92;;;23.45;;
151;SDS011;68;48.792;9.164;2023-01-24T08:37:02;39.88;;;23.48;;
151;SDS011;68;48.792;9.164;2023-01-24T08:39:29;39.17;;;22.58;;
151;SDS011;68;48.792;9.164;2023-01-24T08:41:56;44.58;;;24.77;;
151;SDS011;68;48.792;9.164;2023-01-24T08:44:23;45.55;;;24.80;;
151;SDS011;68;48.792;9.164;2023-01-24T08:46:49;46.97;;;24.33;;
151;SDS011;68;48.792;9.164;2023-01-24T08:49:16;42.83;;;23.10;;
151;SDS011;68;48.792;9.164;2023-01-24T08:51:44;42.88;;;23.50;;
151;SDS011;68;48.792;9.164;2023-01-24T08:54:12;50.00;;;24.20;;
151;SDS011;68;48.792;9.164;2023-01-24T08:56:39;43.45;;;23.63;;
151;SDS011;68;48.792;9.164;2023-01-24T08:59:06;45.63;;;24.50;;
151;SDS011;68;48.792;9.164;2023-01-24T09:01:32;41.30;;;24.10;;
151;SDS011;68;48.792;9.164;2023-01-24T09:03:59;40.65;;;23.63;;
151;SDS011;68;48.792;9.164;2023-01-24T09:06:27;44.55;;;23.25;;
151;SDS011;68;48.792;9.164;2023-01-24T09:08:55;41.28;;;22.73;;
151;SDS011;68;48.792;9.164;2023-01-24T09:11:22;42.30;;;24.23;;
151;SDS011;68;48.792;9.164;2023-01-24T09:13:49;42.85;;;23.80;;
151;SDS011;68;48.792;9.164;2023-01-24T09:16:16;41.58;;;23.15;;
151;SDS011;68;48.792;9.164;2023-01-24T09:18:42;39.53;;;21.90;;
151;SDS011;68;48.792;9.164;2023-01-24T09:21:09;40.88;;;22.95;;
151;SDS011;68;48.792;9.164;2023-01-24T09:23:36;37.38;;;21.42;;
151;SDS011;68;48.792;9.164;2023-01-24T09:26:04;40.72;;;23.20;;
151;SDS011;68;48.792;9.164;2023-01-24T09:28:31;41.33;;;21.30;;
151;SDS011;68;48.792;9.164;2023-01-24T09:30:59;40.80;;;22.15;;
151;SDS011;68;48.792;9.164;2023-01-24T09:33:26;38.80;;;22.42;;
151;SDS011;68;48.792;9.164;2023-01-24T09:35:54;37.60;;;22.20;;
151;SDS011;68;48.792;9.164;2023-01-24T09:38:22;41.30;;;22.67;;
151;SDS011;68;48.792;9.164;2023-01-24T09:40:53;42.22;;;22.20;;
151;SDS011;68;48.792;9.164;2023-01-24T09:43:30;39.28;;;22.55;;
151;SDS011;68;48.792;9.164;2023-01-24T09:46:13;39.13;;;22.02;;
151;SDS011;68;48.792;9.164;2023-01-24T09:48:44;37.88;;;22.63;;
151;SDS011;68;48.792;9.164;2023-01-24T09:51:14;40.70;;;23.67;;
151;SDS011;68;48.792;9.164;2023-01-24T09:53:45;36.30;;;21.42;;
151;SDS011;68;48.792;9.164;2023-01-24T09:56:18;34.80;;;20.63;;
151;SDS011;68;48.792;9.164;2023-01-24T09:58:55;36.63;;;21.27;;
151;SDS011;68;48.792;9.164;2023-01-24T10:01:36;36.65;;;22.13;;
151;SDS011;68;48.792;9.164;2023-01-24T10:04:08;37.10;;;21.65;;
151;SDS011;68;48.792;9.164;2023-01-24T10:06:39;32.67;;;19.33;;
151;SDS011;68;48.792;9.164;2023-01-24T10:09:13;33.22;;;20.02;;
151;SDS011;68;48.792;9.164;2023-01-24T10:11:48;32.80;;;19.90;;
151;SDS011;68;48.792;9.164;2023-01-24T10:14:31;35.08;;;21.23;;
151;SDS011;68;48.792;9.164;2023-01-24T10:17:32;30.90;;;19.23;;
151;SDS011;68;48.792;9.164;2023-01-24T10:20:45;30.75;;;18.13;;
151;SDS011;68;48.792;9.164;2023-01-24T10:23:20;30.95;;;19.92;;
151;SDS011;68;48.792;9.164;2023-01-24T10:25:51;27.92;;;17.70;;
151;SDS011;68;48.792;9.164;2023-01-24T10:28:23;30.67;;;17.50;;
151;SDS011;68;48.792;9.164;2023-01-24T10:30:55;25.55;;;16.75;;
151;SDS011;68;48.792;9.164;2023-01-24T10:33:28;24.80;;;15.63;;
151;SDS011;68;48.792;9.164;2023-01-24T10:35:58;24.02;;;15.68;;
151;SDS011;68;48.792;9.164;2023-01-24T10:38:29;27.20;;;16.70;;
151;SDS011;68;48.792;9.164;2023-01-24T10:40:58;23.65;;;16.10;;
151;SDS011;68;48.792;9.164;2023-01-24T10:43:39;26.95;;;16.52;;
151;SDS011;68;48.792;9.164;2023-01-24T10:46:14;24.42;;;15.25;;
151;SDS011;68;48.792;9.164;2023-01-24T10:48:57;24.38;;;15.73;;
151;SDS011;68;48.792;9.164;2023-01-24T10:51:26;25.67;;;15.60;;
151;SDS011;68;48.792;9.164;2023-01-24T10:53:54;25.67;;;15.68;;
151;SDS011;68;48.792;9.164;2023-01-24T10:56:26;27.63;;;15.80;;
151;SDS011;68;48.792;9.164;2023-01-24T10:58:54;30.35;;;17.83;;
151;SDS011;68;48.792;9.164;2023-01-24T11:01:31;32.65;;;20.45;;
151;SDS011;68;48.792;9.164;2023-01-24T11:03:58;34.47;;;20.67;;
151;SDS011;68;48.792;9.164;2023-01-24T11:06:38;31.02;;;20.00;;
151;SDS011;68;48.792;9.164;2023-01-24T11:09:09;33.17;;;20.38;;
151;SDS011;68;48.792;9.164;2023-01-24T11:11:39;30.73;;;18.52;;
151;SDS011;68;48.792;9.164;2023-01-24T11:14:10;25.70;;;16.15;;
151;SDS011;68;48.792;9.164;2023-01-24T11:16:41;28.23;;;18.23;;
151;SDS011;68;48.792;9.164;2023-01-24T11:19:20;27.65;;;16.95;;
151;SDS011;68;48.792;9.164;2023-01-24T11:21:49;27.60;;;16.63;;
151;SDS011;68;48.792;9.164;2023-01-24T11:24:18;28.48;;;17.48;;
151;SDS011;68;48.792;9.164;2023-01-24T11:26:51;24.40;;;16.83;;
151;SDS011;68;48.792;9.164;2023-01-24T11:29:21;33.65;;;17.58;;
151;SDS011;68;48.792;9.164;2023-01-24T11:31:50;29.58;;;17.08;;
151;SDS011;68;48.792;9.164;2023-01-24T11:34:22;26.95;;;16.85;;
151;SDS011;68;48.792;9.164;2023-01-24T11:37:14;26.58;;;16.75;;
151;SDS011;68;48.792;9.164;2023-01-24T11:40:17;27.10;;;16.50;;
151;SDS011;68;48.792;9.164;2023-01-24T11:42:51;26.83;;;16.02;;
151;SDS011;68;48.792;9.164;2023-01-24T11:45:30;29.25;;;16.42;;
151;SDS011;68;48.792;9.164;2023-01-24T11:48:08;26.70;;;16.35;;
151;SDS011;68;48.792;9.164;2023-01-24T11:50:42;26.88;;;16.55;;
151;SDS011;68;48.792;9.164;2023-01-24T11:53:28;27.55;;;16.73;;
151;SDS011;68;48.792;9.164;2023-01-24T11:56:20;25.55;;;15.77;;
151;SDS011;68;48.792;9.164;2023-01-24T11:59:03;29.88;;;17.30;;
151;SDS011;68;48.792;9.164;2023-01-24T12:01:50;30.20;;;17.25;;
151;SDS011;68;48.792;9.164;2023-01-24T12:04:27;26.98;;;16.50;;
151;SDS011;68;48.792;9.164;2023-01-24T12:07:20;29.27;;;16.60;;
151;SDS011;68;48.792;9.164;2023-01-24T12:09:53;31.75;;;17.02;;
151;SDS011;68;48.792;9.164;2023-01-24T12:12:28;27.85;;;17.60;;
151;SDS011;68;48.792;9.164;2023-01-24T12:15:06;30.25;;;16.52;;
151;SDS011;68;48.792;9.164;2023-01-24T12:17:53;30.23;;;16.65;;
151;SDS011;68;48.792;9.164;2023-01-24T12:20:48;27.77;;;16.73;;
151;SDS011;68;48.792;9.164;2023-01-24T12:23:26;27.45;;;17.00;;
151;SDS011;68;48.792;9.164;2023-01-24T12:26:00;29.40;;;16.70;;
151;SDS011;68;48.792;9.164;2023-01-24T12:28:32;25.77;;;16.35;;
151;SDS011;68;48.792;9.164;2023-01-24T12:31:03;23.83;;;16.23;;
151;SDS011;68;48.792;9.164;2023-01-24T12:33:32;28.13;;;16.70;;
151;SDS011;68;48.792;9.164;2023-01-24T12:36:09;24.52;;;15.45;;
151;SDS011;68;48.792;9.164;2023-01-24T12:38:41;25.85;;;15.80;;
151;SDS011;68;48.792;9.164;2023-01-24T12:41:15;27.67;;;15.70;;
151;SDS011;68;48.792;9.164;2023-01-24T12:43:48;26.17;;;16.48;;
151;SDS011;68;48.792;9.164;2023-01-24T12:46:23;25.27;;;15.70;;
151;SDS011;68;48.792;9.164;2023-01-24T12:48:56;26.13;;;16.48;;
151;SDS011;68;48.792;9.164;2023-01-24T12:51:35;25.85;;;16.10;;
151;SDS011;68;48.792;9.164;2023-01-24T12:54:09;20.27;;;11.85;;
151;SDS011;68;48.792;9.164;2023-01-24T12:56:42;28.50;;;16.65;;
151;SDS011;68;48.792;9.164;2023-01-24T12:59:17;24.98;;;15.60;;
151;SDS011;68;48.792;9.164;2023-01-24T13:01:55;24.92;;;15.73;;
151;SDS011;68;48.792;9.164;2023-01-24T13:04:35;23.67;;;15.00;;
151;SDS011;68;48.792;9.164;2023-01-24T13:07:16;29.90;;;15.48;;
151;SDS011;68;48.792;9.164;2023-01-24T13:09:52;25.08;;;15.77;;
151;SDS011;68;48.792;9.164;2023-01-24T13:12:23;23.92;;;16.00;;
151;SDS011;68;48.792;9.164;2023-01-24T13:14:52;25.13;;;15.70;;
151;SDS011;68;48.792;9.164;2023-01-24T13:17:24;25.27;;;15.88;;
151;SDS011;68;48.792;9.164;2023-01-24T13:20:14;21.80;;;14.90;;
151;SDS011;68;48.792;9.164;2023-01-24T13:23:02;24.48;;;16.27;;
151;SDS011;68;48.792;9.164;2023-01-24T13:25:48;23.58;;;15.45;;
151;SDS011;68;48.792;9.164;2023-01-24T13:28:36;24.00;;;15.13;;
151;SDS011;68;48.792;9.164;2023-01-24T13:31:16;22.00;;;14.55;;
151;SDS011;68;48.792;9.164;2023-01-24T13:33:49;24.45;;;15.45;;
151;SDS011;68;48.792;9.164;2023-01-24T13:36:19;25.30;;;15.55;;
151;SDS011;68;48.792;9.164;2023-01-24T13:38:49;22.60;;;14.88;;
151;SDS011;68;48.792;9.164;2023-01-24T13:41:17;22.85;;;15.10;;
151;SDS011;68;48.792;9.164;2023-01-24T13:43:58;23.60;;;15.35;;
151;SDS011;68;48.792;9.164;2023-01-24T13:49:33;23.20;;;15.77;;
151;SDS011;68;48.792;9.164;2023-01-24T13:52:03;26.35;;;15.35;;
151;SDS011;68;48.792;9.164;2023-01-24T13:54:52;21.85;;;14.80;;
151;SDS011;68;48.792;9.164;2023-01-24T13:57:20;24.45;;;15.30;;
151;SDS011;68;48.792;9.164;2023-01-24T14:00:00;23.02;;;15.45;;
151;SDS011;68;48.792;9.164;2023-01-24T14:02:56;22.50;;;14.77;;
151;SDS011;68;48.792;9.164;2023-01-24T14:05:47;23.33;;;15.18;;
151;SDS011;68;48.792;9.164;2023-01-24T14:08:45;25.30;;;15.57;;
151;SDS011;68;48.792;9.164;2023-01-24T14:11:37;25.13;;;15.20;;
151;SDS011;68;48.792;9.164;2023-01-24T14:14:30;25.08;;;16.15;;
151;SDS011;68;48.792;9.164;2023-01-24T14:19:58;21.10;;;14.00;;
151;SDS011;68;48.792;9.164;2023-01-24T14:25:24;24.73;;;15.90;;
151;SDS011;68;48.792;9.164;2023-01-24T14:28:04;23.30;;;15.32;;
151;SDS011;68;48.792;9.164;2023-01-24T14:30:39;25.60;;;15.68;;
151;SDS011;68;48.792;9.164;2023-01-24T14:33:15;26.25;;;15.00;;
151;SDS011;68;48.792;9.164;2023-01-24T14:35:53;23.15;;;15.68;;
151;SDS011;68;48.792;9.164;2023-01-24T14:38:24;23.10;;;14.75;;
151;SDS011;68;48.792;9.164;2023-01-24T14:40:51;23.42;;;15.25;;
151;SDS011;68;48.792;9.164;2023-01-24T14:43:22;24.90;;;15.55;;
151;SDS011;68;48.792;9.164;2023-01-24T14:45:50;26.90;;;16.58;;
151;SDS011;68;48.792;9.164;2023-01-24T14:48:19;22.20;;;14.63;;
151;SDS011;68;48.792;9.164;2023-01-24T14:50:55;25.95;;;16.45;;
151;SDS011;68;48.792;9.164;2023-01-24T14:53:25;24.42;;;15.00;;
151;SDS011;68;48.792;9.164;2023-01-24T14:55:53;21.42;;;14.23;;
151;SDS011;68;48.792;9.164;2023-01-24T14:58:24;21.77;;;14.65;;
151;SDS011;68;48.792;9.164;2023-01-24T15:00:52;25.35;;;15.88;;
151;SDS011;68;48.792;9.164;2023-01-24T15:03:22;22.08;;;14.80;;
151;SDS011;68;48.792;9.164;2023-01-24T15:05:55;24.83;;;14.88;;
151;SDS011;68;48.792;9.164;2023-01-24T15:08:24;28.88;;;16.27;;
151;SDS011;68;48.792;9.164;2023-01-24T15:10:54;25.33;;;15.15;;
151;SDS011;68;48.792;9.164;2023-01-24T15:13:26;22.80;;;15.10;;
151;SDS011;68;48.792;9.164;2023-01-24T15:15:55;23.85;;;15.07;;
151;SDS011;68;48.792;9.164;2023-01-24T15:21:17;24.65;;;15.77;;
151;SDS011;68;48.792;9.164;2023-01-24T15:23:52;23.70;;;16.38;;
151;SDS011;68;48.792;9.164;2023-01-24T15:26:32;24.88;;;16.77;;
151;SDS011;68;48.792;9.164;2023-01-24T15:32:35;26.42;;;15.50;;
151;SDS011;68;48.792;9.164;2023-01-24T15:35:27;26.27;;;16.95;;
151;SDS011;68;48.792;9.164;2023-01-24T15:38:09;28.13;;;17.40;;
151;SDS011;68;48.792;9.164;2023-01-24T15:40:49;27.92;;;16.83;;
151;SDS011;68;48.792;9.164;2023-01-24T15:43:22;27.90;;;17.77;;
151;SDS011;68;48.792;9.164;2023-01-24T15:46:18;26.70;;;17.60;;
151;SDS011;68;48.792;9.164;2023-01-24T15:49:15;29.23;;;17.42;;
151;SDS011;68;48.792;9.164;2023-01-24T15:51:56;28.25;;;17.15;;
151;SDS011;68;48.792;9.164;2023-01-24T15:54:45;29.60;;;16.92;;
151;SDS011;68;48.792;9.164;2023-01-24T15:57:18;28.00;;;16.98;;
151;SDS011;68;48.792;9.164;2023-01-24T15:59:48;30.05;;;18.20;;
151;SDS011;68;48.792;9.164;2023-01-24T16:02:16;32.22;;;17.75;;
151;SDS011;68;48.792;9.164;2023-01-24T16:04:45;33.72;;;18.35;;
151;SDS011;68;48.792;9.164;2023-01-24T16:07:12;29.92;;;18.80;;
151;SDS011;68;48.792;9.164;2023-01-24T16:09:40;29.45;;;18.75;;
151;SDS011;68;48.792;9.164;2023-01-24T16:12:08;28.70;;;18.40;;
151;SDS011;68;48.792;9.164;2023-01-24T16:14:45;32.38;;;19.60;;